createdAt,value
2018-11-10T00:00:48.992Z,78.60
2018-11-10T00:03:17.568Z,78.07
2018-11-10T00:05:46.142Z,78.53
2018-11-10T00:08:15.011Z,78.19
2018-11-10T00:10:43.514Z,78.21
2018-11-10T00:13:12.091Z,78.05
2018-11-10T00:15:40.805Z,78.09
2018-11-10T00:18:09.380Z,78.05
2018-11-10T00:20:38.986Z,78.46
2018-11-10T00:23:10.160Z,78.49
2018-11-10T00:25:41.747Z,78.57
2018-11-10T00:28:12.747Z,78.59
2018-11-10T00:30:41.282Z,78.12
2018-11-10T00:33:09.830Z,78.36
2018-11-10T00:35:38.564Z,78.30
2018-11-10T00:38:07.626Z,78.06
2018-11-10T00:40:36.180Z,78.64
2018-11-10T00:43:05.065Z,78.10
2018-11-10T00:45:33.636Z,78.39
2018-11-10T00:48:02.302Z,77.94
2018-11-10T00:50:30.952Z,78.24
2018-11-10T00:52:59.566Z,78.47
2018-11-10T00:55:28.429Z,77.60
2018-11-10T00:57:57.037Z,77.95
2018-11-10T01:00:25.683Z,78.52
2018-11-10T01:02:54.961Z,78.27
2018-11-10T01:05:23.656Z,78.96
2018-11-10T01:07:52.195Z,78.58
2018-11-10T01:10:21.301Z,78.17
2018-11-10T01:12:50.054Z,78.23
2018-11-10T01:15:18.621Z,78.70
2018-11-10T01:17:47.861Z,78.54
2018-11-10T01:20:16.680Z,78.87
2018-11-10T01:22:45.216Z,78.34
2018-11-10T01:25:13.760Z,78.47
2018-11-10T01:27:43.224Z,78.25
2018-11-10T01:30:15.945Z,78.51
2018-11-10T01:32:45.398Z,78.49
2018-11-10T01:35:14.634Z,78.38
2018-11-10T01:37:43.260Z,78.90
2018-11-10T01:40:13.185Z,78.37
2018-11-10T01:42:42.426Z,78.52
2018-11-10T01:45:13.629Z,78.79
2018-11-10T01:47:42.462Z,78.72
2018-11-10T01:50:11.428Z,78.57
2018-11-10T01:52:40.438Z,78.76
2018-11-10T01:55:09.818Z,78.76
2018-11-10T01:57:38.417Z,78.74
2018-11-10T02:00:10.833Z,78.43
2018-11-10T02:02:40.012Z,78.05
2018-11-10T02:05:08.629Z,78.23
2018-11-10T02:07:37.321Z,78.21
2018-11-10T02:10:07.271Z,78.35
2018-11-10T02:12:35.763Z,78.29
2018-11-10T02:15:04.441Z,78.37
2018-11-10T02:17:32.905Z,78.29
2018-11-10T02:20:01.453Z,78.35
2018-11-10T02:22:30.038Z,78.55
2018-11-10T02:24:58.736Z,78.60
2018-11-10T02:27:28.600Z,78.46
2018-11-10T02:29:57.312Z,78.10
2018-11-10T02:32:25.804Z,78.16
2018-11-10T02:34:54.514Z,78.52
2018-11-10T02:37:22.994Z,78.56
2018-11-10T02:39:51.489Z,78.18
2018-11-10T02:42:20.023Z,78.39
2018-11-10T02:44:48.676Z,78.48
2018-11-10T02:47:18.041Z,78.61
2018-11-10T02:49:46.732Z,77.92
2018-11-10T02:52:15.214Z,77.74
2018-11-10T02:54:43.765Z,77.65
2018-11-10T02:57:12.536Z,77.85
2018-11-10T02:59:41.012Z,78.47
2018-11-10T03:02:09.593Z,78.34
2018-11-10T03:04:38.100Z,78.29
2018-11-10T03:07:06.641Z,78.14
2018-11-10T03:09:35.112Z,77.80
2018-11-10T03:12:04.348Z,78.11
2018-11-10T03:14:33.414Z,78.02
2018-11-10T03:17:01.920Z,77.85
2018-11-10T03:19:30.566Z,77.64
2018-11-10T03:21:59.056Z,77.57
2018-11-10T03:24:27.568Z,77.31
2018-11-10T03:26:57.282Z,77.70
2018-11-10T03:29:25.778Z,77.47
2018-11-10T03:31:54.346Z,77.63
2018-11-10T03:34:23.013Z,77.24
2018-11-10T03:36:52.103Z,77.70
2018-11-10T03:39:20.771Z,78.04
2018-11-10T03:41:49.307Z,78.07
2018-11-10T03:44:18.689Z,77.87
2018-11-10T03:46:47.129Z,77.34
2018-11-10T03:49:15.910Z,77.55
2018-11-10T03:51:44.556Z,77.28
2018-11-10T03:54:13.197Z,77.66
2018-11-10T03:56:41.707Z,77.71
2018-11-10T03:59:10.352Z,77.67
2018-11-10T04:01:39.457Z,77.45
2018-11-10T04:04:08.673Z,77.66
2018-11-10T04:06:37.177Z,77.71
2018-11-10T04:09:06.725Z,77.36
2018-11-10T04:11:35.561Z,77.12
2018-11-10T04:14:04.711Z,77.39
2018-11-10T04:16:33.289Z,76.95
2018-11-10T04:19:01.929Z,76.96
2018-11-10T04:21:31.653Z,76.83
2018-11-10T04:24:00.344Z,77.06
2018-11-10T04:26:28.893Z,76.75
2018-11-10T04:28:57.382Z,76.65
2018-11-10T04:31:26.494Z,76.96
2018-11-10T04:33:55.113Z,76.90
2018-11-10T04:36:23.692Z,76.58
2018-11-10T04:38:52.297Z,76.26
2018-11-10T04:41:20.797Z,76.48
2018-11-10T04:43:49.313Z,76.43
2018-11-10T04:46:17.849Z,76.44
2018-11-10T04:48:46.561Z,76.22
2018-11-10T04:51:15.106Z,76.87
2018-11-10T04:53:43.576Z,76.75
2018-11-10T04:56:12.197Z,76.71
2018-11-10T04:58:42.024Z,76.54
2018-11-10T05:01:10.628Z,76.70
2018-11-10T05:03:39.574Z,76.31
2018-11-10T05:06:08.250Z,75.96
2018-11-10T05:08:36.726Z,76.30
2018-11-10T05:11:05.565Z,76.57
2018-11-10T05:13:34.073Z,76.54
2018-11-10T05:16:03.332Z,76.18
2018-11-10T05:18:31.878Z,76.54
2018-11-10T05:21:00.326Z,76.18
2018-11-10T05:23:28.809Z,74.94
2018-11-10T05:25:57.844Z,73.61
2018-11-10T05:28:27.013Z,72.28
2018-11-10T05:30:55.607Z,71.05
2018-11-10T05:33:24.399Z,70.20
2018-11-10T05:35:53.009Z,69.65
2018-11-10T05:38:21.546Z,69.62
2018-11-10T05:40:50.045Z,69.27
2018-11-10T05:43:19.121Z,68.98
2018-11-10T05:45:47.749Z,68.72
2018-11-10T05:48:16.916Z,68.44
2018-11-10T05:50:45.587Z,68.34
2018-11-10T05:53:14.136Z,68.55
2018-11-10T05:55:42.719Z,68.08
2018-11-10T05:58:11.422Z,68.15
2018-11-10T06:00:39.881Z,68.18
2018-11-10T06:03:08.491Z,68.24
2018-11-10T06:05:37.853Z,68.67
2018-11-10T06:08:06.387Z,68.31
2018-11-10T06:10:36.656Z,68.43
2018-11-10T06:13:05.419Z,68.51
2018-11-10T06:15:34.137Z,68.24
2018-11-10T06:18:04.450Z,68.44
2018-11-10T06:20:33.006Z,68.51
2018-11-10T06:23:01.502Z,68.42
2018-11-10T06:25:29.974Z,68.96
2018-11-10T06:27:58.721Z,68.66
2018-11-10T06:30:28.267Z,68.82
2018-11-10T06:32:57.274Z,69.25
2018-11-10T06:35:25.929Z,69.13
2018-11-10T06:37:54.423Z,69.74
2018-11-10T06:40:24.801Z,69.86
2018-11-10T06:42:53.998Z,69.59
2018-11-10T06:45:22.560Z,70.31
2018-11-10T06:47:51.093Z,70.60
2018-11-10T06:50:20.787Z,70.66
2018-11-10T06:52:49.481Z,70.78
2018-11-10T06:55:18.256Z,70.91
2018-11-10T06:57:46.992Z,71.10
2018-11-10T07:00:16.633Z,71.31
2018-11-10T07:02:45.174Z,72.29
2018-11-10T07:05:14.596Z,73.71
2018-11-10T07:07:43.334Z,51.78
2018-11-10T07:10:11.987Z,58.89
2018-11-10T07:12:40.602Z,63.54
2018-11-10T07:15:10.010Z,67.69
2018-11-10T07:17:38.815Z,71.85
2018-11-10T07:20:08.031Z,74.52
2018-11-10T07:22:36.837Z,76.82
2018-11-10T07:25:07.483Z,78.65
2018-11-10T07:27:40.161Z,81.78
2018-11-10T07:30:14.691Z,83.04
2018-11-10T07:32:43.786Z,83.50
2018-11-10T07:35:13.289Z,83.84
2018-11-10T07:37:42.317Z,85.14
2018-11-10T07:40:12.530Z,85.64
2018-11-10T07:42:41.630Z,86.04
2018-11-10T07:45:12.237Z,85.91
2018-11-10T07:47:41.677Z,86.17
2018-11-10T07:50:10.952Z,85.79
2018-11-10T07:52:39.823Z,85.75
2018-11-10T07:55:09.359Z,86.44
2018-11-10T07:57:37.962Z,86.90
2018-11-10T08:00:10.000Z,85.78
2018-11-10T08:02:38.613Z,86.04
2018-11-10T08:05:09.583Z,85.73
2018-11-10T08:07:38.376Z,86.37
2018-11-10T08:10:07.512Z,86.13
2018-11-10T08:12:36.297Z,84.68
2018-11-10T08:15:05.947Z,85.67
2018-11-10T08:17:35.299Z,85.60
2018-11-10T08:20:03.971Z,85.39
2018-11-10T08:22:35.234Z,86.78
2018-11-10T08:25:03.993Z,86.48
2018-11-10T08:27:32.486Z,86.90
2018-11-10T08:30:01.191Z,86.49
2018-11-10T08:32:30.552Z,86.40
2018-11-10T08:35:00.011Z,85.16
2018-11-10T08:37:28.946Z,84.64
2018-11-10T08:39:57.484Z,85.81
2018-11-10T08:42:39.298Z,85.54
2018-11-10T08:45:09.201Z,85.37
2018-11-10T08:47:38.723Z,83.87
2018-11-10T08:50:08.835Z,82.32
2018-11-10T08:52:38.369Z,82.44
2018-11-10T08:55:08.448Z,81.82
2018-11-10T08:57:37.398Z,81.33
2018-11-10T09:00:06.486Z,81.67
2018-11-10T09:02:35.229Z,79.53
2018-11-10T09:05:03.900Z,79.43
2018-11-10T09:07:32.438Z,80.34
2018-11-10T09:10:01.057Z,80.60
2018-11-10T09:12:29.673Z,79.00
2018-11-10T09:14:58.364Z,79.99
2018-11-10T09:17:27.074Z,79.85
2018-11-10T09:19:55.772Z,78.95
2018-11-10T09:22:24.305Z,78.22
2018-11-10T09:24:52.782Z,77.40
2018-11-10T09:27:22.618Z,77.46
2018-11-10T09:29:51.360Z,76.91
2018-11-10T09:32:19.865Z,76.91
2018-11-10T09:34:48.360Z,75.87
2018-11-10T09:37:16.945Z,76.02
2018-11-10T09:39:45.528Z,74.46
2018-11-10T09:42:14.884Z,74.88
2018-11-10T09:44:43.434Z,74.19
2018-11-10T09:47:12.708Z,73.18
2018-11-10T09:49:41.303Z,72.54
2018-11-10T09:52:10.395Z,71.59
2018-11-10T09:54:38.932Z,71.51
2018-11-10T09:57:09.056Z,70.56
2018-11-10T09:59:37.666Z,70.12
2018-11-10T10:02:06.858Z,69.03
2018-11-10T10:04:35.176Z,68.36
2018-11-10T10:07:14.807Z,68.13
2018-11-10T10:09:46.083Z,67.25
2018-11-10T10:12:14.746Z,67.84
2018-11-10T10:14:43.238Z,68.29
2018-11-10T10:17:12.970Z,66.91
2018-11-10T10:19:41.533Z,66.40
2018-11-10T10:22:10.130Z,66.40
2018-11-10T10:24:38.738Z,65.57
2018-11-10T10:27:07.436Z,65.47
2018-11-10T10:29:36.696Z,65.21
2018-11-10T10:32:05.533Z,63.72
2018-11-10T10:34:34.859Z,63.30
2018-11-10T10:37:06.843Z,63.23
2018-11-10T10:39:39.257Z,61.97
2018-11-10T10:42:11.895Z,62.05
2018-11-10T10:44:44.456Z,59.75
2018-11-10T10:47:16.477Z,59.67
2018-11-10T10:49:45.221Z,59.46
2018-11-10T10:52:18.262Z,58.23
2018-11-10T10:54:50.457Z,58.72
2018-11-10T10:57:22.941Z,58.51
2018-11-10T10:59:55.694Z,57.78
2018-11-10T11:02:33.629Z,57.75
2018-11-10T11:05:10.512Z,57.47
2018-11-10T11:07:43.489Z,56.80
2018-11-10T11:10:15.030Z,56.18
2018-11-10T11:12:45.861Z,55.74
2018-11-10T11:15:15.161Z,57.09
2018-11-10T11:17:44.773Z,55.26
2018-11-10T11:20:14.352Z,56.19
2018-11-10T11:22:44.721Z,54.91
2018-11-10T11:25:15.307Z,54.89
2018-11-10T11:27:44.245Z,54.66
2018-11-10T11:30:12.776Z,53.63
2018-11-10T11:32:42.617Z,52.65
2018-11-10T11:35:13.086Z,52.60
2018-11-10T11:37:42.412Z,52.51
2018-11-10T11:40:12.832Z,51.40
2018-11-10T11:42:42.949Z,51.81
2018-11-10T11:45:12.378Z,51.54
2018-11-10T11:47:42.264Z,51.62
2018-11-10T11:50:12.708Z,51.61
2018-11-10T11:52:42.171Z,53.35
2018-11-10T11:55:12.087Z,52.57
2018-11-10T11:57:42.052Z,53.18
2018-11-10T12:00:17.546Z,52.70
2018-11-10T12:02:46.788Z,52.84
2018-11-10T12:05:16.594Z,53.19
2018-11-10T12:07:46.728Z,52.67
2018-11-10T12:10:16.212Z,51.55
2018-11-10T12:12:44.983Z,51.57
2018-11-10T12:15:14.861Z,50.98
2018-11-10T12:17:43.407Z,52.36
2018-11-10T12:20:13.314Z,50.57
2018-11-10T12:22:42.306Z,51.25
2018-11-10T12:25:12.062Z,50.22
2018-11-10T12:27:42.238Z,50.33
2018-11-10T12:30:11.461Z,49.90
2018-11-10T12:32:40.545Z,50.22
2018-11-10T12:35:10.453Z,49.04
2018-11-10T12:37:39.248Z,50.17
2018-11-10T12:40:09.437Z,50.28
2018-11-10T12:42:38.885Z,50.06
2018-11-10T12:45:08.469Z,50.69
2018-11-10T12:47:37.728Z,51.02
2018-11-10T12:50:07.286Z,51.68
2018-11-10T12:52:35.813Z,51.33
2018-11-10T12:55:06.359Z,51.07
2018-11-10T12:57:34.968Z,51.59
2018-11-10T13:00:03.545Z,52.25
2018-11-10T13:02:32.025Z,51.72
2018-11-10T13:05:02.262Z,51.24
2018-11-10T13:07:31.003Z,50.93
2018-11-10T13:10:00.239Z,51.17
2018-11-10T13:12:30.080Z,50.78
2018-11-10T13:15:04.372Z,49.84
2018-11-10T13:17:33.102Z,48.94
2018-11-10T13:20:01.633Z,48.59
2018-11-10T13:22:31.222Z,48.47
2018-11-10T13:24:59.750Z,48.65
2018-11-10T13:27:28.213Z,49.39
2018-11-10T13:29:56.723Z,48.81
2018-11-10T13:32:25.301Z,49.11
2018-11-10T13:34:56.516Z,49.21
2018-11-10T13:37:25.404Z,48.85
2018-11-10T13:39:54.333Z,48.48
2018-11-10T13:42:24.400Z,47.24
2018-11-10T13:44:53.332Z,48.24
2018-11-10T13:47:24.069Z,47.65
2018-11-10T13:49:52.983Z,47.79
2018-11-10T13:52:21.859Z,47.22
2018-11-10T13:54:50.082Z,49.58
2018-11-10T13:57:20.575Z,49.06
2018-11-10T13:59:51.395Z,50.38
2018-11-10T14:02:20.510Z,50.23
2018-11-10T14:04:48.991Z,51.91
2018-11-10T14:07:18.291Z,51.67
2018-11-10T14:09:47.311Z,52.79
2018-11-10T14:12:16.547Z,53.73
2018-11-10T14:14:47.559Z,55.21
2018-11-10T14:17:16.482Z,55.32
2018-11-10T14:19:45.437Z,55.05
2018-11-10T14:22:17.109Z,55.93
2018-11-10T14:24:45.949Z,56.88
2018-11-10T14:27:14.502Z,58.13
2018-11-10T14:29:43.119Z,58.40
2018-11-10T14:32:12.447Z,57.73
2018-11-10T14:34:41.230Z,57.89
2018-11-10T14:37:10.100Z,59.05
2018-11-10T14:39:39.460Z,58.94
2018-11-10T14:42:08.321Z,59.67
2018-11-10T14:44:36.923Z,59.86
2018-11-10T14:47:06.394Z,60.28
2018-11-10T14:49:35.035Z,60.59
2018-11-10T14:52:03.551Z,60.74
2018-11-10T14:54:32.035Z,60.75
2018-11-10T14:57:01.432Z,61.52
2018-11-10T14:59:30.355Z,62.48
2018-11-10T15:02:00.531Z,61.39
2018-11-10T15:04:29.167Z,62.33
2018-11-10T15:06:57.690Z,62.36
2018-11-10T15:09:26.710Z,62.61
2018-11-10T15:11:55.501Z,62.70
2018-11-10T15:14:24.616Z,63.22
2018-11-10T15:16:53.341Z,63.22
2018-11-10T15:19:21.993Z,62.58
2018-11-10T15:21:50.541Z,61.99
2018-11-10T15:24:19.145Z,62.51
2018-11-10T15:26:47.631Z,63.38
2018-11-10T15:29:16.150Z,64.46
2018-11-10T15:31:45.250Z,63.43
2018-11-10T15:34:15.792Z,64.53
2018-11-10T15:36:46.799Z,64.33
2018-11-10T15:39:18.018Z,65.31
2018-11-10T15:41:48.055Z,65.88
2018-11-10T15:44:17.210Z,65.93
2018-11-10T15:46:46.928Z,65.37
2018-11-10T15:49:16.756Z,65.49
2018-11-10T15:51:45.856Z,65.50
2018-11-10T15:54:15.639Z,65.96
2018-11-10T15:56:45.940Z,66.02
2018-11-10T15:59:15.621Z,67.12
2018-11-10T16:01:44.985Z,67.35
2018-11-10T16:04:13.599Z,67.05
2018-11-10T16:06:42.840Z,67.77
2018-11-10T16:09:13.990Z,68.27
2018-11-10T16:11:43.452Z,68.32
2018-11-10T16:14:14.120Z,67.76
2018-11-10T16:16:43.351Z,67.80
2018-11-10T16:19:13.264Z,67.96
2018-11-10T16:21:43.411Z,68.65
2018-11-10T16:24:13.406Z,67.97
2018-11-10T16:26:42.827Z,67.90
2018-11-10T16:29:11.944Z,68.34
2018-11-10T16:31:40.632Z,68.11
2018-11-10T16:34:09.627Z,67.76
2018-11-10T16:36:39.629Z,68.89
2018-11-10T16:39:09.634Z,68.63
2018-11-10T16:41:38.288Z,68.96
2018-11-10T16:44:06.946Z,69.51
2018-11-10T16:46:36.256Z,70.40
2018-11-10T16:49:05.129Z,69.97
2018-11-10T16:51:34.872Z,70.45
2018-11-10T16:54:04.769Z,70.86
2018-11-10T16:56:34.156Z,71.43
2018-11-10T16:59:02.861Z,71.98
2018-11-10T17:01:31.485Z,71.79
2018-11-10T17:04:00.664Z,72.41
2018-11-10T17:06:30.281Z,72.12
2018-11-10T17:08:59.899Z,72.58
2018-11-10T17:11:29.642Z,72.31
2018-11-10T17:13:58.284Z,72.50
2018-11-10T17:16:27.800Z,72.23
2018-11-10T17:18:56.503Z,72.33
2018-11-10T17:21:25.266Z,72.32
2018-11-10T17:23:53.760Z,72.92
2018-11-10T17:26:22.425Z,72.46
2018-11-10T17:28:51.519Z,72.79
2018-11-10T17:31:20.219Z,73.34
2018-11-10T17:33:48.829Z,72.83
2018-11-10T17:36:18.749Z,73.54
2018-11-10T17:38:47.524Z,73.39
2018-11-10T17:41:16.008Z,72.97
2018-11-10T17:43:44.932Z,73.35
2018-11-10T17:46:13.648Z,72.79
2018-11-10T17:48:42.179Z,73.11
2018-11-10T17:51:11.359Z,72.83
2018-11-10T17:53:40.362Z,72.47
2018-11-10T17:56:08.907Z,72.65
2018-11-10T17:58:37.607Z,72.35
2018-11-10T18:01:06.244Z,72.92
2018-11-10T18:03:35.716Z,72.04
2018-11-10T18:06:04.646Z,71.90
2018-11-10T18:08:33.193Z,72.56
2018-11-10T18:11:02.542Z,72.85
2018-11-10T18:13:31.248Z,72.87
2018-11-10T18:16:00.162Z,72.43
2018-11-10T18:18:28.868Z,72.46
2018-11-10T18:20:58.432Z,72.39
2018-11-10T18:23:26.979Z,72.20
2018-11-10T18:25:55.964Z,72.10
2018-11-10T18:28:25.146Z,72.74
2018-11-10T18:30:54.026Z,72.76
2018-11-10T18:33:23.018Z,72.73
2018-11-10T18:35:51.846Z,72.68
2018-11-10T18:38:20.509Z,72.27
2018-11-10T18:40:49.709Z,72.69
2018-11-10T18:43:18.735Z,72.12
2018-11-10T18:45:50.035Z,72.02
2018-11-10T18:48:19.234Z,72.28
2018-11-10T18:50:48.193Z,72.13
2018-11-10T18:53:16.850Z,71.94
2018-11-10T18:55:45.534Z,71.93
2018-11-10T18:58:14.194Z,72.29
2018-11-10T19:00:42.863Z,72.37
2018-11-10T19:03:12.397Z,72.03
2018-11-10T19:05:42.356Z,72.47
2018-11-10T19:08:14.102Z,72.93
2018-11-10T19:10:43.310Z,73.05
2018-11-10T19:13:12.390Z,73.13
2018-11-10T19:15:41.506Z,72.97
2018-11-10T19:18:10.836Z,72.88
2018-11-10T19:20:40.285Z,72.97
2018-11-10T19:23:09.181Z,73.15
2018-11-10T19:25:38.688Z,72.26
2018-11-10T19:28:07.619Z,72.57
2018-11-10T19:30:36.582Z,72.75
2018-11-10T19:33:06.659Z,72.32
2018-11-10T19:35:35.872Z,72.52
2018-11-10T19:38:04.981Z,72.84
2018-11-10T19:40:34.539Z,73.00
2018-11-10T19:43:03.781Z,72.72
2018-11-10T19:45:33.715Z,72.35
2018-11-10T19:48:03.294Z,72.51
2018-11-10T19:50:35.289Z,72.81
2018-11-10T19:53:04.170Z,73.43
2018-11-10T19:55:34.167Z,72.51
2018-11-10T19:58:03.603Z,72.79
2018-11-10T20:00:32.411Z,72.86
2018-11-10T20:03:01.830Z,72.79
2018-11-10T20:05:31.413Z,73.49
2018-11-10T20:08:00.080Z,73.68
2018-11-10T20:10:28.828Z,74.16
2018-11-10T20:13:00.083Z,73.98
2018-11-10T20:15:29.217Z,73.89
2018-11-10T20:17:58.587Z,74.27
2018-11-10T20:20:27.617Z,74.02
2018-11-10T20:22:56.133Z,74.41
2018-11-10T20:25:24.950Z,74.55
2018-11-10T20:27:53.553Z,75.21
2018-11-10T20:30:22.396Z,74.92
2018-11-10T20:32:51.438Z,74.47
2018-11-10T20:35:19.961Z,75.09
2018-11-10T20:37:48.577Z,74.96
2018-11-10T20:40:19.010Z,74.97
2018-11-10T20:42:48.086Z,75.12
2018-11-10T20:45:18.471Z,74.82
2018-11-10T20:47:47.603Z,75.38
2018-11-10T20:50:16.770Z,75.28
2018-11-10T20:52:45.543Z,75.00
2018-11-10T20:55:14.597Z,74.82
2018-11-10T20:57:44.065Z,74.52
2018-11-10T21:00:15.521Z,75.10
2018-11-10T21:02:44.685Z,74.51
2018-11-10T21:05:13.776Z,74.91
2018-11-10T21:07:43.737Z,75.20
2018-11-10T21:10:15.291Z,75.29
2018-11-10T21:12:44.836Z,75.13
2018-11-10T21:15:14.165Z,74.46
2018-11-10T21:17:43.253Z,75.16
2018-11-10T21:20:12.576Z,75.21
2018-11-10T21:22:41.232Z,75.65
2018-11-10T21:25:13.122Z,75.96
2018-11-10T21:27:42.568Z,75.83
2018-11-10T21:30:12.709Z,76.29
2018-11-10T21:32:43.334Z,76.48
2018-11-10T21:35:12.195Z,76.43
2018-11-10T21:37:40.678Z,75.91
2018-11-10T21:40:13.835Z,75.43
2018-11-10T21:42:42.644Z,76.24
2018-11-10T21:45:12.403Z,75.83
2018-11-10T21:47:41.120Z,76.02
2018-11-10T21:50:13.012Z,75.33
2018-11-10T21:52:42.877Z,75.32
2018-11-10T21:55:17.657Z,75.95
2018-11-10T21:57:47.086Z,75.32
2018-11-10T22:00:17.670Z,75.16
2018-11-10T22:02:46.765Z,75.18
2018-11-10T22:05:18.251Z,75.13
2018-11-10T22:07:46.973Z,75.81
2018-11-10T22:10:17.008Z,75.73
2018-11-10T22:12:46.690Z,76.27
2018-11-10T22:15:16.718Z,77.76
2018-11-10T22:17:45.707Z,75.73
2018-11-10T22:20:17.287Z,75.89
2018-11-10T22:22:45.892Z,76.11
2018-11-10T22:25:14.851Z,76.13
2018-11-10T22:27:45.036Z,76.15
2018-11-10T22:30:15.967Z,76.63
2018-11-10T22:32:45.999Z,77.21
2018-11-10T22:35:15.599Z,76.16
2018-11-10T22:37:44.166Z,76.08
2018-11-10T22:40:15.310Z,76.54
2018-11-10T22:42:45.224Z,75.96
2018-11-10T22:45:15.867Z,76.66
2018-11-10T22:47:44.536Z,77.95
2018-11-10T22:50:18.021Z,77.35
2018-11-10T22:52:47.631Z,76.87
2018-11-10T22:55:16.165Z,76.34
2018-11-10T22:57:45.163Z,76.15
2018-11-10T23:00:26.807Z,76.73
2018-11-10T23:02:59.898Z,77.15
2018-11-10T23:05:32.415Z,76.73
2018-11-10T23:08:03.234Z,77.27
2018-11-10T23:10:31.925Z,77.25
2018-11-10T23:13:03.122Z,77.64
2018-11-10T23:15:32.008Z,78.45
2018-11-10T23:18:04.501Z,78.13
2018-11-10T23:20:33.222Z,79.74
2018-11-10T23:23:05.516Z,79.19
2018-11-10T23:25:37.833Z,79.75
2018-11-10T23:28:09.744Z,80.93
2018-11-10T23:30:38.455Z,81.17
2018-11-10T23:33:07.061Z,81.28
2018-11-10T23:35:35.569Z,81.59
2018-11-10T23:38:04.767Z,81.88
2018-11-10T23:40:33.274Z,81.43
2018-11-10T23:43:02.086Z,80.81
2018-11-10T23:45:30.815Z,81.37
2018-11-10T23:47:59.681Z,80.97
2018-11-10T23:50:33.605Z,81.48
2018-11-10T23:53:06.850Z,80.83
2018-11-10T23:55:39.660Z,81.39
2018-11-10T23:58:12.882Z,80.59
